createdAt,value
2019-03-04T00:01:44.831Z,96666.23
2019-03-04T00:04:13.215Z,96666.34
2019-03-04T00:06:41.611Z,96670.71
2019-03-04T00:09:11.597Z,96658.84
2019-03-04T00:11:40.674Z,96651.23
2019-03-04T00:14:09.099Z,96651.23
2019-03-04T00:16:37.484Z,96641.45
2019-03-04T00:19:05.909Z,96644.91
2019-03-04T00:21:34.326Z,96650.56
2019-03-04T00:24:02.735Z,96649.67
2019-03-04T00:26:31.129Z,96651.84
2019-03-04T00:28:59.522Z,96643.25
2019-03-04T00:31:27.981Z,96646.33
2019-03-04T00:33:56.365Z,96649.27
2019-03-04T00:36:24.762Z,96640.73
2019-03-04T00:38:53.172Z,96632.19
2019-03-04T00:41:21.641Z,96635.97
2019-03-04T00:43:50.056Z,96625.77
2019-03-04T00:46:19.973Z,96623.20
2019-03-04T00:48:48.355Z,96616.77
2019-03-04T00:51:16.730Z,96611.63
2019-03-04T00:53:45.105Z,96600.94
2019-03-04T00:56:13.517Z,96599.15
2019-03-04T00:58:42.005Z,96589.19
2019-03-04T01:01:10.471Z,96597.49
2019-03-04T01:03:38.865Z,96600.48
2019-03-04T01:06:07.342Z,96597.09
2019-03-04T01:08:35.747Z,96595.40
2019-03-04T01:11:05.911Z,96591.12
2019-03-04T01:13:34.303Z,96580.89
2019-03-04T01:16:02.698Z,96574.57
2019-03-04T01:18:31.115Z,96571.70
2019-03-04T01:20:59.515Z,96572.59
2019-03-04T01:23:27.899Z,96576.90
2019-03-04T01:25:56.291Z,96579.41
2019-03-04T01:28:24.708Z,96559.73
2019-03-04T01:30:53.126Z,96564.45
2019-03-04T01:33:21.625Z,96563.54
2019-03-04T01:35:50.018Z,96559.69
2019-03-04T01:38:18.411Z,96557.56
2019-03-04T01:40:46.824Z,96555.41
2019-03-04T01:43:15.206Z,96563.48
2019-03-04T01:45:43.775Z,96554.48
2019-03-04T01:48:12.257Z,96548.98
2019-03-04T01:50:40.672Z,96543.78
2019-03-04T01:53:09.073Z,96543.84
2019-03-04T01:55:37.485Z,96537.01
2019-03-04T01:58:05.872Z,96535.72
2019-03-04T02:00:34.468Z,96526.73
2019-03-04T02:03:02.854Z,96518.19
2019-03-04T02:05:31.239Z,96509.25
2019-03-04T02:07:59.689Z,96513.11
2019-03-04T02:10:28.083Z,96499.45
2019-03-04T02:12:56.581Z,96495.23
2019-03-04T02:15:24.966Z,96484.66
2019-03-04T02:17:53.355Z,96475.00
2019-03-04T02:20:21.760Z,96467.34
2019-03-04T02:22:50.144Z,96466.22
2019-03-04T02:25:42.260Z,96457.34
2019-03-04T02:28:10.642Z,96455.39
2019-03-04T02:30:39.118Z,96467.89
2019-03-04T02:33:07.592Z,96473.59
2019-03-04T02:35:36.143Z,96458.74
2019-03-04T02:38:04.544Z,96466.88
2019-03-04T02:40:32.923Z,96460.50
2019-03-04T02:43:01.880Z,96454.55
2019-03-04T02:45:30.284Z,96446.73
2019-03-04T02:47:58.696Z,96439.80
2019-03-04T02:50:27.105Z,96437.23
2019-03-04T02:52:55.501Z,96412.78
2019-03-04T02:55:23.947Z,96418.77
2019-03-04T02:57:52.306Z,96418.71
2019-03-04T03:00:20.752Z,96412.23
2019-03-04T03:02:49.139Z,96400.22
2019-03-04T03:05:17.532Z,96390.00
2019-03-04T03:07:45.935Z,96396.82
2019-03-04T03:10:15.145Z,96392.52
2019-03-04T03:12:43.602Z,96383.98
2019-03-04T03:15:13.824Z,96389.48
2019-03-04T03:17:43.103Z,96379.67
2019-03-04T03:20:12.919Z,96382.69
2019-03-04T03:22:41.333Z,96381.01
2019-03-04T03:25:11.081Z,96377.16
2019-03-04T03:27:39.702Z,96374.64
2019-03-04T03:30:19.980Z,96372.13
2019-03-04T03:32:49.108Z,96359.41
2019-03-04T03:35:17.497Z,96356.78
2019-03-04T03:37:45.893Z,96349.53
2019-03-04T03:40:16.035Z,96348.24
2019-03-04T03:42:44.421Z,96346.10
2019-03-04T03:45:13.142Z,96339.37
2019-03-04T03:47:41.555Z,96335.63
2019-03-04T03:50:12.982Z,96333.55
2019-03-04T03:52:41.444Z,96328.04
2019-03-04T03:55:13.733Z,96319.87
2019-03-04T03:57:42.142Z,96320.79
2019-03-04T04:00:13.588Z,96321.22
2019-03-04T04:02:41.974Z,96321.22
2019-03-04T04:05:10.368Z,96318.28
2019-03-04T04:07:38.768Z,96317.36
2019-03-04T04:10:10.259Z,96309.30
2019-03-04T04:12:38.643Z,96306.78
2019-03-04T04:15:10.174Z,96306.78
2019-03-04T04:17:38.559Z,96301.70
2019-03-04T04:20:08.884Z,96294.91
2019-03-04T04:22:37.281Z,96296.65
2019-03-04T04:25:07.656Z,96293.28
2019-03-04T04:27:36.110Z,96285.69
2019-03-04T04:30:14.639Z,96277.22
2019-03-04T04:32:43.047Z,96271.31
2019-03-04T04:35:11.410Z,96267.13
2019-03-04T04:37:39.853Z,96274.52
2019-03-04T04:40:14.651Z,96254.41
2019-03-04T04:42:43.135Z,96259.59
2019-03-04T04:45:11.773Z,96256.25
2019-03-04T04:47:41.799Z,96252.00
2019-03-04T04:50:13.408Z,96249.89
2019-03-04T04:52:41.793Z,96254.20
2019-03-04T04:55:10.316Z,96253.80
2019-03-04T04:57:38.729Z,96243.59
2019-03-04T05:00:15.534Z,96240.56
2019-03-04T05:02:43.983Z,96238.52
2019-03-04T05:05:12.513Z,96244.53
2019-03-04T05:07:40.889Z,96239.39
2019-03-04T05:10:12.323Z,96229.19
2019-03-04T05:12:40.733Z,96233.49
2019-03-04T05:15:11.381Z,96225.03
2019-03-04T05:17:40.031Z,96231.05
2019-03-04T05:20:11.594Z,96216.56
2019-03-04T05:22:40.125Z,96215.27
2019-03-04T05:25:08.943Z,96202.87
2019-03-04T05:27:37.326Z,96190.50
2019-03-04T05:30:08.780Z,96198.59
2019-03-04T05:32:37.167Z,96191.72
2019-03-04T05:35:06.200Z,96187.41
2019-03-04T05:37:34.584Z,96167.28
2019-03-04T05:40:03.434Z,96171.25
2019-03-04T05:42:31.815Z,96137.95
2019-03-04T05:45:00.339Z,96161.10
2019-03-04T05:47:28.731Z,96165.47
2019-03-04T05:49:57.131Z,96168.57
2019-03-04T05:52:25.514Z,96153.75
2019-03-04T05:54:53.911Z,96161.56
2019-03-04T05:57:22.307Z,96160.80
2019-03-04T05:59:50.705Z,96156.23
2019-03-04T06:02:19.117Z,96140.50
2019-03-04T06:04:47.475Z,96129.47
2019-03-04T06:07:17.514Z,96125.73
2019-03-04T06:09:45.916Z,96129.70
2019-03-04T06:12:14.295Z,96125.51
2019-03-04T06:14:42.676Z,96127.36
2019-03-04T06:17:11.075Z,96122.34
2019-03-04T06:19:39.467Z,96125.69
2019-03-04T06:22:07.847Z,96126.59
2019-03-04T06:24:36.232Z,96130.04
2019-03-04T06:27:04.709Z,96129.16
2019-03-04T06:29:33.103Z,96119.67
2019-03-04T06:32:01.531Z,96116.17
2019-03-04T06:34:29.943Z,96095.44
2019-03-04T06:36:58.351Z,96026.98
2019-03-04T06:39:26.745Z,96025.83
2019-03-04T06:41:55.148Z,96034.11
2019-03-04T06:44:23.537Z,96025.80
2019-03-04T06:46:54.115Z,96037.17
2019-03-04T06:49:24.124Z,96040.31
2019-03-04T06:51:52.157Z,96056.69
2019-03-04T06:54:29.319Z,96060.17
2019-03-04T06:57:00.777Z,96049.25
2019-03-04T06:59:43.998Z,96040.63
2019-03-04T07:02:20.615Z,96030.89
2019-03-04T07:05:07.202Z,96025.45
2019-03-04T07:07:35.600Z,96022.55
2019-03-04T07:10:06.060Z,96007.27
2019-03-04T07:12:34.439Z,96011.19
2019-03-04T07:15:02.859Z,96013.30
2019-03-04T07:17:31.250Z,96008.95
2019-03-04T07:20:11.464Z,95998.56
2019-03-04T07:22:39.853Z,95994.48
2019-03-04T07:25:09.779Z,95996.44
2019-03-04T07:27:38.160Z,95986.47
2019-03-04T07:30:15.375Z,95987.62
2019-03-04T07:32:43.758Z,95998.95
2019-03-04T07:35:12.379Z,95970.83
2019-03-04T07:37:40.769Z,95981.08
2019-03-04T07:40:19.461Z,95961.27
2019-03-04T07:42:47.914Z,95974.61
2019-03-04T07:45:16.298Z,95967.38
2019-03-04T07:47:44.675Z,95975.67
2019-03-04T07:50:13.255Z,95970.33
2019-03-04T07:52:41.642Z,95972.72
2019-03-04T07:55:10.211Z,95958.09
2019-03-04T07:57:38.579Z,95951.81
2019-03-04T08:00:10.362Z,95942.10
2019-03-04T08:02:38.746Z,95932.58
2019-03-04T08:05:10.037Z,95922.22
2019-03-04T08:07:47.208Z,95909.65
2019-03-04T08:10:49.932Z,95900.41
2019-03-04T08:13:30.323Z,95928.79
2019-03-04T08:15:58.867Z,95933.43
2019-03-04T08:18:27.348Z,95931.29
2019-03-04T08:20:55.733Z,95926.93
2019-03-04T08:23:24.160Z,95933.50
2019-03-04T08:25:52.518Z,95931.68
2019-03-04T08:28:20.931Z,95927.92
2019-03-04T08:30:49.342Z,95918.95
2019-03-04T08:33:17.725Z,95901.75
2019-03-04T08:35:46.105Z,95907.06
2019-03-04T08:38:14.496Z,95894.34
2019-03-04T08:40:42.876Z,95902.14
2019-03-04T08:43:11.278Z,95908.09
2019-03-04T08:45:39.679Z,95914.92
2019-03-04T08:48:10.758Z,95914.81
2019-03-04T08:50:39.117Z,95920.94
2019-03-04T08:53:07.735Z,95928.83
2019-03-04T08:55:36.113Z,95935.30
2019-03-04T08:58:04.559Z,95947.72
2019-03-04T09:00:33.007Z,95948.69
2019-03-04T09:03:01.419Z,95954.04
2019-03-04T09:05:29.801Z,95965.70
2019-03-04T09:07:58.186Z,95974.41
2019-03-04T09:10:28.506Z,95970.15
2019-03-04T09:12:56.959Z,95970.44
2019-03-04T09:15:25.480Z,95977.25
2019-03-04T09:17:53.951Z,95964.50
2019-03-04T09:20:22.873Z,95959.41
2019-03-04T09:22:51.293Z,95953.73
2019-03-04T09:25:43.658Z,95949.53
2019-03-04T09:28:12.070Z,95953.53
2019-03-04T09:30:40.446Z,95948.36
2019-03-04T09:33:09.199Z,95942.67
2019-03-04T09:35:37.560Z,95940.67
2019-03-04T09:38:06.290Z,95937.27
2019-03-04T09:40:35.859Z,95923.77
2019-03-04T09:43:05.847Z,95914.27
2019-03-04T09:45:38.806Z,95905.23
2019-03-04T09:48:04.639Z,95895.24
2019-03-04T09:50:33.070Z,95893.05
2019-03-04T09:53:01.476Z,95902.19
2019-03-04T09:55:29.857Z,95890.55
2019-03-04T09:57:58.255Z,95892.30
2019-03-04T10:01:00.218Z,95893.39
2019-03-04T10:03:31.672Z,95894.27
2019-03-04T10:06:15.333Z,95885.54
2019-03-04T10:08:52.424Z,95877.62
2019-03-04T10:11:29.602Z,95869.13
2019-03-04T10:14:01.040Z,95872.94
2019-03-04T10:16:52.362Z,95868.31
2019-03-04T10:19:23.791Z,95875.17
2019-03-04T10:21:57.787Z,95876.27
2019-03-04T10:24:34.742Z,95885.34
2019-03-04T10:27:09.204Z,95892.46
2019-03-04T10:29:40.651Z,95905.72
2019-03-04T10:32:28.897Z,95911.59
2019-03-04T10:35:06.087Z,95917.36
2019-03-04T10:37:53.937Z,95915.52
2019-03-04T10:40:40.457Z,95915.73
2019-03-04T10:43:34.517Z,95920.50
2019-03-04T10:46:29.885Z,95921.94
2019-03-04T10:48:58.305Z,95908.13
2019-03-04T10:51:26.688Z,95916.27
2019-03-04T10:53:55.078Z,95922.40
2019-03-04T10:56:23.458Z,95929.28
2019-03-04T10:58:51.848Z,95935.23
2019-03-04T11:01:29.916Z,95928.24
2019-03-04T11:03:50.368Z,95932.13
2019-03-04T11:06:18.846Z,95940.44
2019-03-04T11:08:47.249Z,95943.25
2019-03-04T11:11:15.664Z,95934.38
2019-03-04T11:13:44.046Z,95944.77
2019-03-04T11:16:12.436Z,95948.87
2019-03-04T11:18:40.878Z,95953.95
2019-03-04T11:21:09.348Z,95965.66
2019-03-04T11:23:37.941Z,95969.92
2019-03-04T11:26:06.405Z,95982.50
2019-03-04T11:28:34.807Z,96001.09
2019-03-04T11:31:03.669Z,95996.70
2019-03-04T11:33:32.056Z,96015.52
2019-03-04T11:36:01.418Z,96002.84
2019-03-04T11:38:38.612Z,95990.66
2019-03-04T11:41:08.909Z,95993.55
2019-03-04T11:43:37.291Z,95972.60
2019-03-04T11:46:05.732Z,95958.85
2019-03-04T11:48:34.138Z,95941.97
2019-03-04T11:51:02.630Z,95927.81
2019-03-04T11:53:31.002Z,95933.81
2019-03-04T11:55:59.503Z,95927.86
2019-03-04T11:58:27.904Z,95944.67
2019-03-04T12:01:00.531Z,95956.03
2019-03-04T12:03:28.915Z,95954.58
2019-03-04T12:05:57.310Z,95954.64
2019-03-04T12:08:25.705Z,95961.87
2019-03-04T12:10:54.121Z,95958.05
2019-03-04T12:13:22.533Z,95946.37
2019-03-04T12:15:50.924Z,95954.43
2019-03-04T12:18:19.308Z,95943.10
2019-03-04T12:20:47.703Z,95939.08
2019-03-04T12:23:16.251Z,95935.02
2019-03-04T12:25:44.630Z,95937.31
2019-03-04T12:28:13.087Z,95930.66
2019-03-04T12:30:41.468Z,95931.82
2019-03-04T12:33:11.200Z,95932.34
2019-03-04T12:35:39.614Z,95917.73
2019-03-04T12:38:08.007Z,95905.59
2019-03-04T12:40:36.534Z,95910.41
2019-03-04T12:43:04.993Z,95910.30
2019-03-04T12:45:34.662Z,95913.67
2019-03-04T12:48:03.264Z,95905.21
2019-03-04T12:50:36.743Z,95916.77
2019-03-04T12:53:05.678Z,95912.30
2019-03-04T12:55:34.082Z,95922.87
2019-03-04T12:58:02.593Z,95930.42
2019-03-04T13:00:34.044Z,95919.03
2019-03-04T13:03:02.491Z,95951.84
2019-03-04T13:05:31.007Z,95932.09
2019-03-04T13:07:59.417Z,95936.73
2019-03-04T13:10:27.834Z,95946.00
2019-03-04T13:12:56.239Z,95944.18
2019-03-04T13:15:26.898Z,95946.08
2019-03-04T13:17:55.398Z,95929.67
2019-03-04T13:20:33.333Z,95917.84
2019-03-04T13:23:01.734Z,95949.49
2019-03-04T13:25:30.107Z,95980.02
2019-03-04T13:28:07.840Z,95970.23
2019-03-04T13:30:33.796Z,95960.54
2019-03-04T13:33:02.202Z,95955.85
2019-03-04T13:35:41.402Z,95949.05
2019-03-04T13:38:09.897Z,95927.05
2019-03-04T13:40:38.332Z,95939.84
2019-03-04T13:43:06.909Z,95959.08
2019-03-04T13:45:35.363Z,95965.73
2019-03-04T13:48:03.834Z,95958.35
2019-03-04T13:50:33.760Z,95920.86
2019-03-04T13:53:02.186Z,95916.52
2019-03-04T13:55:30.638Z,95937.16
2019-03-04T13:57:59.130Z,95951.00
2019-03-04T14:00:32.959Z,95952.48
2019-03-04T14:03:01.372Z,95946.40
2019-03-04T14:05:29.829Z,95952.05
2019-03-04T14:07:58.225Z,95955.47
2019-03-04T14:10:35.511Z,95956.23
2019-03-04T14:13:04.055Z,95952.16
2019-03-04T14:15:35.321Z,95941.62
2019-03-04T14:18:03.785Z,95956.02
2019-03-04T14:20:32.196Z,95939.49
2019-03-04T14:23:00.586Z,95932.11
2019-03-04T14:25:28.994Z,95932.82
2019-03-04T14:27:57.388Z,95928.48
2019-03-04T14:30:25.847Z,95937.38
2019-03-04T14:32:54.239Z,95934.12
2019-03-04T14:35:22.623Z,95938.64
2019-03-04T14:37:52.679Z,95924.52
2019-03-04T14:40:23.124Z,95926.81
2019-03-04T14:42:51.523Z,95918.72
2019-03-04T14:45:21.772Z,95906.36
2019-03-04T14:47:50.175Z,95925.53
2019-03-04T14:50:19.694Z,95907.16
2019-03-04T14:52:48.076Z,95914.27
2019-03-04T14:55:24.321Z,95923.49
2019-03-04T14:57:52.707Z,95928.48
2019-03-04T15:00:28.803Z,95916.28
2019-03-04T15:02:57.257Z,95927.17
2019-03-04T15:05:25.639Z,95930.31
2019-03-04T15:07:55.762Z,95929.93
2019-03-04T15:10:24.271Z,95933.08
2019-03-04T15:12:52.695Z,95943.31
2019-03-04T15:15:29.194Z,95962.30
2019-03-04T15:17:57.601Z,95956.84
2019-03-04T15:20:27.926Z,95960.89
2019-03-04T15:22:56.444Z,95958.61
2019-03-04T15:25:31.114Z,95947.16
2019-03-04T15:28:16.689Z,95939.13
2019-03-04T15:30:47.285Z,95933.57
2019-03-04T15:33:18.379Z,95922.98
2019-03-04T15:35:45.777Z,95934.69
2019-03-04T15:38:14.254Z,95925.36
2019-03-04T15:40:42.693Z,95923.03
2019-03-04T15:43:11.156Z,95913.27
2019-03-04T15:45:41.556Z,95934.09
2019-03-04T15:48:09.941Z,95941.09
2019-03-04T15:50:38.333Z,95917.10
2019-03-04T15:53:07.537Z,95914.69
2019-03-04T15:55:36.017Z,95858.44
2019-03-04T15:58:04.731Z,95900.87
2019-03-04T16:00:33.535Z,95880.02
2019-03-04T16:03:01.992Z,95884.45
2019-03-04T16:05:30.371Z,95894.38
2019-03-04T16:08:07.210Z,95893.83
2019-03-04T16:10:34.999Z,95907.67
2019-03-04T16:13:03.442Z,95901.30
2019-03-04T16:15:31.907Z,95906.55
2019-03-04T16:18:00.293Z,95909.13
2019-03-04T16:20:28.745Z,95913.00
2019-03-04T16:22:57.196Z,95899.16
2019-03-04T16:25:25.582Z,95902.59
2019-03-04T16:27:59.813Z,95906.38
2019-03-04T16:30:28.211Z,95888.67
2019-03-04T16:32:56.587Z,95877.99
2019-03-04T16:35:24.968Z,95884.80
2019-03-04T16:37:54.424Z,95876.32
2019-03-04T16:40:25.028Z,95887.64
2019-03-04T16:42:53.655Z,95889.56
2019-03-04T16:45:23.489Z,95906.68
2019-03-04T16:47:51.918Z,95900.05
2019-03-04T16:50:22.889Z,95915.61
2019-03-04T16:52:54.378Z,95913.64
2019-03-04T16:55:22.759Z,95911.78
2019-03-04T16:57:51.205Z,95911.52
2019-03-04T17:00:21.138Z,95912.50
2019-03-04T17:02:50.254Z,95898.48
2019-03-04T17:05:19.763Z,95902.52
2019-03-04T17:07:50.831Z,95912.09
2019-03-04T17:10:21.058Z,95905.43
2019-03-04T17:12:49.451Z,95903.23
2019-03-04T17:15:19.730Z,95897.70
2019-03-04T17:17:48.272Z,95863.02
2019-03-04T17:20:20.382Z,95910.67
2019-03-04T17:22:48.834Z,95904.31
2019-03-04T17:25:19.828Z,95907.36
2019-03-04T17:27:48.669Z,95907.74
2019-03-04T17:30:19.371Z,95906.34
2019-03-04T17:32:48.013Z,95911.88
2019-03-04T17:35:21.782Z,95921.81
2019-03-04T17:37:50.501Z,95936.77
2019-03-04T17:40:21.406Z,95946.53
2019-03-04T17:42:49.808Z,95945.46
2019-03-04T17:45:19.821Z,95942.88
2019-03-04T17:47:48.277Z,95935.14
2019-03-04T17:50:31.722Z,95938.24
2019-03-04T17:53:00.579Z,95936.77
2019-03-04T17:55:29.154Z,95930.09
2019-03-04T17:57:57.606Z,95936.70
2019-03-04T18:00:26.049Z,95956.82
2019-03-04T18:02:54.430Z,95961.04
2019-03-04T18:05:22.836Z,95968.03
2019-03-04T18:07:51.218Z,95985.34
2019-03-04T18:10:19.670Z,95998.40
2019-03-04T18:12:48.114Z,96007.20
2019-03-04T18:15:19.301Z,95999.63
2019-03-04T18:17:47.705Z,96014.50
2019-03-04T18:20:16.248Z,96007.95
2019-03-04T18:22:45.626Z,96016.00
2019-03-04T18:25:17.057Z,96011.20
2019-03-04T18:27:48.337Z,96016.04
2019-03-04T18:30:19.765Z,96027.33
2019-03-04T18:32:47.385Z,96042.04
2019-03-04T18:35:27.416Z,96049.38
2019-03-04T18:38:07.424Z,96040.08
2019-03-04T18:40:38.871Z,96050.62
2019-03-04T18:43:28.229Z,96060.78
2019-03-04T18:46:25.194Z,96058.56
2019-03-04T18:48:58.583Z,96051.06
2019-03-04T18:51:27.692Z,96063.33
2019-03-04T18:54:01.570Z,96060.59
2019-03-04T18:56:30.212Z,96069.95
2019-03-04T18:58:59.016Z,96076.17
2019-03-04T19:01:27.466Z,96071.60
2019-03-04T19:03:55.894Z,96079.53
2019-03-04T19:06:24.347Z,96083.56
2019-03-04T19:08:52.780Z,96079.38
2019-03-04T19:11:21.272Z,96100.94
2019-03-04T19:13:49.660Z,96097.61
2019-03-04T19:16:18.071Z,96104.64
2019-03-04T19:18:46.467Z,96094.02
2019-03-04T19:21:14.859Z,96096.05
2019-03-04T19:23:43.244Z,96115.94
2019-03-04T19:26:11.696Z,96116.58
2019-03-04T19:28:40.095Z,96126.64
2019-03-04T19:31:08.562Z,96118.30
2019-03-04T19:33:36.933Z,96122.86
2019-03-04T19:36:05.377Z,96147.13
2019-03-04T19:38:33.831Z,96141.84
2019-03-04T19:41:02.278Z,96144.31
2019-03-04T19:43:33.136Z,96147.58
2019-03-04T19:46:00.968Z,96172.64
2019-03-04T19:48:29.567Z,96179.32
2019-03-04T19:50:58.055Z,96193.64
2019-03-04T19:53:26.436Z,96203.28
2019-03-04T19:55:54.818Z,96208.48
2019-03-04T19:58:23.267Z,96209.47
2019-03-04T20:00:51.655Z,96200.59
2019-03-04T20:03:20.377Z,96217.42
2019-03-04T20:05:48.760Z,96205.13
2019-03-04T20:08:17.212Z,96217.78
2019-03-04T20:10:45.680Z,96229.98
2019-03-04T20:13:14.092Z,96242.08
2019-03-04T20:15:42.582Z,96247.80
2019-03-04T20:18:11.047Z,96258.95
2019-03-04T20:20:39.705Z,96270.62
2019-03-04T20:23:08.100Z,96278.48
2019-03-04T20:25:37.071Z,96284.52
2019-03-04T20:28:05.600Z,96315.05
2019-03-04T20:30:34.167Z,96319.87
2019-03-04T20:33:02.565Z,96340.12
2019-03-04T20:35:31.026Z,96351.73
2019-03-04T20:38:17.200Z,96350.13
2019-03-04T20:40:45.587Z,96354.09
2019-03-04T20:43:13.962Z,96366.63
2019-03-04T20:45:42.458Z,96371.09
2019-03-04T20:48:10.847Z,96376.34
2019-03-04T20:50:39.259Z,96386.71
2019-03-04T20:53:07.653Z,96383.13
2019-03-04T20:55:36.128Z,96399.91
2019-03-04T20:58:05.540Z,96392.09
2019-03-04T21:00:36.325Z,96400.17
2019-03-04T21:03:06.713Z,96409.25
2019-03-04T21:05:36.592Z,96413.20
2019-03-04T21:08:07.245Z,96422.28
2019-03-04T21:10:36.018Z,96427.97
2019-03-04T21:13:18.596Z,96425.95
2019-03-04T21:15:47.074Z,96440.56
2019-03-04T21:18:15.541Z,96445.89
2019-03-04T21:20:44.268Z,96471.23
2019-03-04T21:23:12.822Z,96456.81
2019-03-04T21:26:02.596Z,96471.37
2019-03-04T21:28:43.129Z,96471.47
2019-03-04T21:31:26.560Z,96473.25
2019-03-04T21:34:11.104Z,96481.48
2019-03-04T21:37:13.005Z,96486.66
2019-03-04T21:39:48.485Z,96478.56
2019-03-04T21:42:37.977Z,96486.39
2019-03-04T21:45:21.767Z,96497.53
2019-03-04T21:48:02.063Z,96499.30
2019-03-04T21:50:38.833Z,96498.02
2019-03-04T21:53:19.329Z,96498.52
2019-03-04T21:56:22.471Z,96499.11
2019-03-04T21:58:50.970Z,96426.64
2019-03-04T22:01:25.211Z,96508.55
2019-03-04T22:03:53.578Z,96505.61
2019-03-04T22:06:22.065Z,96508.55
2019-03-04T22:08:50.524Z,96517.61
2019-03-04T22:11:18.928Z,96514.67
2019-03-04T22:13:47.384Z,96519.80
2019-03-04T22:16:15.911Z,96523.97
2019-03-04T22:18:44.476Z,96529.42
2019-03-04T22:21:16.657Z,96517.34
2019-03-04T22:23:43.173Z,96516.06
2019-03-04T22:26:11.556Z,96521.64
2019-03-04T22:28:39.976Z,96528.97
2019-03-04T22:31:08.352Z,96528.19
2019-03-04T22:33:36.746Z,96530.80
2019-03-04T22:36:05.162Z,96534.68
2019-03-04T22:38:33.551Z,96543.24
2019-03-04T22:41:02.072Z,96542.83
2019-03-04T22:43:30.528Z,96547.58
2019-03-04T22:45:59.253Z,96545.89
2019-03-04T22:48:27.686Z,96483.16
2019-03-04T22:50:56.156Z,96547.67
2019-03-04T22:53:24.602Z,96552.80
2019-03-04T22:55:53.008Z,96545.11
2019-03-04T22:58:28.693Z,96540.86
2019-03-04T23:00:56.340Z,96547.17
2019-03-04T23:03:30.569Z,96548.08
2019-03-04T23:06:08.281Z,96551.42
2019-03-04T23:08:36.974Z,96557.34
2019-03-04T23:11:05.495Z,96564.16
2019-03-04T23:13:55.548Z,96571.35
2019-03-04T23:16:26.855Z,96582.02
2019-03-04T23:18:55.486Z,96571.30
2019-03-04T23:21:24.017Z,96572.55
2019-03-04T23:23:52.425Z,96575.92
2019-03-04T23:26:20.824Z,96565.27
2019-03-04T23:28:49.237Z,96573.41
2019-03-04T23:31:17.642Z,96502.53
2019-03-04T23:33:46.118Z,96588.34
2019-03-04T23:36:14.548Z,96595.62
2019-03-04T23:38:42.924Z,96586.69
2019-03-04T23:41:11.410Z,96591.48
2019-03-04T23:43:39.834Z,96581.27
2019-03-04T23:46:08.215Z,96580.03
2019-03-04T23:48:36.594Z,96578.92
2019-03-04T23:51:05.037Z,96574.38
2019-03-04T23:53:33.423Z,96579.17
2019-03-04T23:56:01.804Z,96583.14
2019-03-04T23:58:30.178Z,96584.88
